Time;durP1;ratioP1;P1;durP2;ratioP2;P2;SDS_P1;SDS_P2;PMS_P1;PMS_P2;Temp;Humidity;BMP_temperature;BMP_pressure;BME280_temperature;BME280_humidity;BME280_pressure;Samples;Min_cycle;Max_cycle;Signal;HPM_P1;HPM_P2
2022/05/14 00:00:08;;;;;;;7.07;3.03;;;;;;;15.38;61.14;101289.66;2102913;28;20114;-71
2022/05/14 00:01:30;;;;;;;7.43;3.30;;;;;;;15.29;61.50;101287.00;2100844;28;20040;-71
2022/05/14 00:02:55;;;;;;;8.45;3.00;;;;;;;15.24;61.82;101287.81;2109711;28;20085;-71
2022/05/14 00:04:18;;;;;;;5.28;2.90;;;;;;;15.24;62.09;101288.72;2101756;28;20124;-71
2022/05/14 00:05:41;;;;;;;6.43;3.13;;;;;;;15.29;62.00;101284.31;2108392;28;20047;-72
2022/05/14 00:07:06;;;;;;;5.57;2.78;;;;;;;15.38;61.87;101283.47;2112487;28;20169;-72
2022/05/14 00:08:30;;;;;;;7.22;3.28;;;;;;;15.44;61.74;101283.47;2102602;28;20183;-72
2022/05/14 00:09:51;;;;;;;7.45;2.97;;;;;;;15.45;61.67;101282.59;2110153;28;20055;-71
2022/05/14 00:13:07;;;;;;;5.70;2.92;;;;;;;15.43;61.42;101282.59;2114153;28;20055;-71
2022/05/14 00:14:30;;;;;;;7.07;3.20;;;;;;;15.41;61.06;101278.16;2106639;28;20081;-72
2022/05/14 00:15:52;;;;;;;4.82;2.58;;;;;;;15.39;61.22;101280.81;2103613;28;20044;-71
2022/05/14 00:17:14;;;;;;;;;;;;;;;15.36;61.36;101279.94;2112119;28;20079;-72
2022/05/14 00:18:37;;;;;;;6.50;3.05;;;;;;;15.30;61.55;101280.75;2115747;27;20275;-72
2022/05/14 00:20:00;;;;;;;7.47;3.38;;;;;;;15.30;61.70;101272.78;2106765;28;20056;-72
2022/05/14 00:21:23;;;;;;;5.90;2.67;;;;;;;15.32;61.80;101265.69;2112562;28;20499;-72
2022/05/14 00:22:47;;;;;;;7.55;3.10;;;;;;;15.35;61.53;101273.72;2097791;28;20059;-72
2022/05/14 00:24:10;;;;;;;6.68;2.67;;;;;;;15.39;61.32;101278.16;2101018;28;20051;-71
2022/05/14 00:25:34;;;;;;;5.45;2.42;;;;;;;15.42;61.03;101269.31;2103756;28;20056;-72
2022/05/14 00:26:56;;;;;;;4.65;2.63;;;;;;;15.42;60.94;101266.66;2108245;28;20039;-72
2022/05/14 00:28:18;;;;;;;6.32;2.47;;;;;;;15.44;60.76;101270.19;2110375;28;20495;-71
2022/05/14 00:29:41;;;;;;;7.82;3.30;;;;;;;15.45;60.80;101263.97;2114722;28;20039;-71
2022/05/14 00:31:03;;;;;;;10.88;4.18;;;;;;;15.47;60.72;101270.19;2112216;28;20066;-72
2022/05/14 00:32:26;;;;;;;6.10;3.03;;;;;;;15.46;60.73;101263.09;2112038;28;20036;-72
2022/05/14 00:33:48;;;;;;;5.13;2.92;;;;;;;15.44;60.67;101264.84;2101359;28;20056;-71
2022/05/14 00:35:12;;;;;;;4.18;2.65;;;;;;;15.43;60.56;101265.72;2100148;28;20146;-71
2022/05/14 00:36:35;;;;;;;9.15;3.25;;;;;;;15.44;60.45;101262.19;2108687;28;20422;-72
2022/05/14 00:38:00;;;;;;;4.97;2.60;;;;;;;15.41;60.32;101262.19;2105550;28;20070;-71
2022/05/14 00:39:22;;;;;;;6.47;2.58;;;;;;;15.35;60.43;101251.53;2108362;28;20105;-71
2022/05/14 00:40:47;;;;;;;5.88;3.10;;;;;;;15.34;60.83;101257.72;2103741;28;20076;-72
2022/05/14 00:42:10;;;;;;;7.55;3.05;;;;;;;15.33;61.00;101250.63;2110109;28;20047;-71
2022/05/14 00:43:35;;;;;;;8.07;3.50;;;;;;;15.33;61.20;101258.63;2110692;28;20047;-72
2022/05/14 00:44:56;;;;;;;6.32;3.42;;;;;;;15.33;61.43;101251.53;2110390;28;20050;-72
2022/05/14 00:46:22;;;;;;;8.82;2.80;;;;;;;15.33;61.54;101251.53;2103633;28;20530;-71
2022/05/14 00:47:47;;;;;;;6.40;2.75;;;;;;;15.32;61.65;101255.06;2106387;28;20055;-72
2022/05/14 00:49:11;;;;;;;7.72;3.03;;;;;;;15.33;61.64;101250.63;2103803;28;20097;-72
2022/05/14 00:50:39;;;;;;;5.70;3.25;;;;;;;15.33;61.74;101254.19;2100756;28;20149;-71
2022/05/14 00:52:02;;;;;;;6.85;3.47;;;;;;;15.31;61.91;101247.06;2098895;28;20048;-72
2022/05/14 00:53:32;;;;;;;7.63;3.40;;;;;;;15.26;62.33;101246.16;2106098;28;20108;-73
2022/05/14 00:55:00;;;;;;;6.97;3.17;;;;;;;15.19;62.79;101250.56;2104557;28;20044;-72
2022/05/14 00:56:29;;;;;;;7.57;3.38;;;;;;;15.18;62.99;101239.91;2107858;28;20047;-71
2022/05/14 00:57:52;;;;;;;8.52;3.30;;;;;;;15.20;63.09;101238.16;2104194;28;20159;-71
2022/05/14 00:59:17;;;;;;;7.28;3.30;;;;;;;15.23;63.14;101241.72;2104350;28;20055;-71
2022/05/14 01:00:39;;;;;;;7.25;3.17;;;;;;;15.23;63.14;101244.38;2104935;28;20387;-72
2022/05/14 01:02:02;;;;;;;6.38;2.90;;;;;;;15.24;62.93;101248.81;2095776;28;20512;-71
2022/05/14 01:03:24;;;;;;;9.40;2.50;;;;;;;15.23;63.00;101251.50;2107015;28;20072;-72
2022/05/14 01:04:48;;;;;;;7.30;3.35;;;;;;;15.22;62.91;101245.28;2107472;28;20044;-71
2022/05/14 01:06:14;;;;;;;10.27;3.15;;;;;;;15.22;62.68;101253.25;2097605;28;20131;-71
2022/05/14 01:07:38;;;;;;;7.68;3.35;;;;;;;15.21;62.85;101253.25;2099502;28;20139;-72
2022/05/14 01:09:06;;;;;;;5.85;2.88;;;;;;;15.19;62.90;101249.69;2099236;28;20509;-71
2022/05/14 01:10:41;;;;;;;7.22;3.10;;;;;;;15.20;62.96;101246.13;2109730;28;20097;-71
2022/05/14 01:12:05;;;;;;;6.85;3.63;;;;;;;15.18;63.03;101243.47;2101644;28;20606;-71
2022/05/14 01:13:31;;;;;;;7.38;3.03;;;;;;;15.10;63.25;101237.22;2102530;28;20048;-71
2022/05/14 01:14:54;;;;;;;7.80;3.38;;;;;;;15.02;63.58;101236.31;2094649;28;20072;-71
2022/05/14 01:16:17;;;;;;;5.30;3.22;;;;;;;15.03;63.77;101238.09;2104945;28;20039;-71
2022/05/14 01:17:40;;;;;;;9.13;3.60;;;;;;;15.03;63.85;101233.63;2107410;28;20508;-71
2022/05/14 01:19:03;;;;;;;5.13;2.80;;;;;;;15.06;63.83;101232.78;2111372;28;20044;-71
2022/05/14 01:20:28;;;;;;;6.68;2.92;;;;;;;15.09;63.65;101236.34;2105067;28;20134;-71
2022/05/14 01:22:02;;;;;;;4.97;2.80;;;;;;;15.11;63.38;101226.59;2110024;28;20055;-70
2022/05/14 01:26:27;;;;;;;6.25;2.95;;;;;;;15.12;63.20;101236.34;2109016;28;20050;-72
2022/05/14 01:27:07;;;;;;;8.80;3.20;;;;;;;15.09;62.77;101223.06;2101030;28;20063;-71
2022/05/14 01:28:30;;;;;;;5.95;3.22;;;;;;;15.10;62.71;101223.91;2105770;28;20043;-71
2022/05/14 01:29:53;;;;;;;6.70;3.35;;;;;;;15.08;62.84;101221.28;2097275;28;20045;-72
2022/05/14 01:31:16;;;;;;;6.72;3.40;;;;;;;15.04;62.83;101214.16;2111530;27;20047;-71
2022/05/14 01:32:39;;;;;;;6.72;3.75;;;;;;;15.04;62.84;101211.50;2101147;28;20044;-71
2022/05/14 01:34:05;;;;;;;5.78;3.17;;;;;;;15.02;62.95;101210.63;2097905;28;20062;-72
2022/05/14 01:35:28;;;;;;;6.53;2.95;;;;;;;15.00;63.09;101208.81;2108790;28;20035;-71
2022/05/14 01:36:51;;;;;;;6.07;3.00;;;;;;;14.94;63.28;101203.47;2101954;28;20052;-71
2022/05/14 01:38:14;;;;;;;7.00;2.88;;;;;;;14.85;63.59;101206.97;2108214;28;20046;-72
2022/05/14 01:39:37;;;;;;;;;;;;;;;14.73;63.83;101198.94;2103821;28;20040;-72
2022/05/14 01:40:59;;;;;;;6.93;3.88;;;;;;;14.62;64.30;101201.53;2100622;28;19920;-72
2022/05/14 01:42:25;;;;;;;8.98;4.50;;;;;;;14.53;64.61;101193.50;2101064;28;20135;-71
2022/05/14 01:43:47;;;;;;;5.93;3.17;;;;;;;14.49;64.96;101194.38;2107032;28;20134;-72
2022/05/14 01:45:11;;;;;;;7.40;3.40;;;;;;;14.47;65.31;101193.47;2100620;28;20048;-72
2022/05/14 01:46:34;;;;;;;6.07;3.47;;;;;;;14.45;65.61;101197.88;2108179;28;20130;-71
2022/05/14 01:47:57;;;;;;;6.43;3.67;;;;;;;14.46;65.83;101197.00;2101849;28;20068;-72
2022/05/14 01:49:19;;;;;;;7.30;3.80;;;;;;;14.54;65.85;101191.72;2099095;28;20640;-72
2022/05/14 01:50:43;;;;;;;7.00;3.60;;;;;;;14.60;65.71;101197.09;2099774;28;20044;-71
2022/05/14 01:52:05;;;;;;;8.32;3.60;;;;;;;14.62;65.52;101196.22;2100706;28;20044;-71
2022/05/14 01:53:27;;;;;;;7.70;3.35;;;;;;;14.59;65.68;101195.31;2111013;28;20066;-71
2022/05/14 01:54:50;;;;;;;9.88;3.67;;;;;;;14.53;65.91;101196.16;2100716;28;20130;-71
2022/05/14 01:56:13;;;;;;;5.55;3.10;;;;;;;14.51;66.15;101200.56;2102121;28;20051;-71
2022/05/14 01:57:36;;;;;;;6.00;3.70;;;;;;;14.54;66.17;101202.34;2101449;28;20086;-71
2022/05/14 01:58:58;;;;;;;11.55;3.58;;;;;;;14.60;66.17;101213.03;2099759;28;20078;-72
2022/05/14 02:00:21;;;;;;;10.38;3.53;;;;;;;14.65;65.96;101211.28;2100578;28;20048;-72
2022/05/14 02:01:47;;;;;;;6.70;3.42;;;;;;;14.68;65.81;101208.66;2100591;28;20452;-72
2022/05/14 02:03:09;;;;;;;4.60;2.92;;;;;;;14.71;65.56;101214.84;2099275;28;20091;-71
2022/05/14 02:04:31;;;;;;;9.13;3.10;;;;;;;14.71;65.55;101213.97;2099801;28;20040;-71
2022/05/14 02:05:53;;;;;;;7.55;3.67;;;;;;;14.71;65.40;101216.63;2099753;28;20055;-72
2022/05/14 02:07:16;;;;;;;6.45;2.90;;;;;;;14.71;65.30;101204.22;2099388;28;20048;-71
2022/05/14 02:08:38;;;;;;;9.48;3.08;;;;;;;14.74;65.29;101206.91;2104821;28;20040;-71
2022/05/14 02:10:00;;;;;;;7.18;3.25;;;;;;;14.77;65.23;101212.25;2097367;28;20135;-71
2022/05/14 02:11:23;;;;;;;9.25;3.40;;;;;;;14.80;64.99;101211.38;2100669;28;20067;-71
2022/05/14 02:12:51;;;;;;;6.53;3.55;;;;;;;14.83;65.01;101207.88;2100719;28;20064;-71
2022/05/14 02:14:14;;;;;;;7.85;3.35;;;;;;;14.82;64.83;101204.31;2101041;28;20048;-71
2022/05/14 02:15:36;;;;;;;9.13;3.30;;;;;;;14.79;64.67;101204.28;2094763;28;20052;-71
2022/05/14 02:17:00;;;;;;;6.75;2.58;;;;;;;14.75;64.65;101202.50;2102393;28;20051;-71
2022/05/14 02:18:26;;;;;;;4.90;2.97;;;;;;;14.71;64.63;101203.34;2111755;28;20044;-72
2022/05/14 02:19:49;;;;;;;7.75;2.90;;;;;;;14.69;64.51;101203.34;2101331;28;20048;-72
2022/05/14 02:21:14;;;;;;;6.50;3.47;;;;;;;14.66;64.48;101205.09;2105587;28;20063;-71
2022/05/14 02:22:36;;;;;;;6.10;3.15;;;;;;;14.62;64.54;101209.50;2103834;28;20079;-71
2022/05/14 02:24:05;;;;;;;6.45;3.35;;;;;;;14.61;64.48;101210.38;2103069;28;20128;-71
2022/05/14 02:25:27;;;;;;;6.50;3.28;;;;;;;14.55;64.47;101215.66;2103130;28;20067;-71
2022/05/14 02:26:49;;;;;;;5.15;2.97;;;;;;;14.49;64.70;101205.00;2103255;28;20068;-72
2022/05/14 02:28:12;;;;;;;8.57;3.42;;;;;;;14.50;64.82;101216.50;2094312;28;20396;-71
2022/05/14 02:31:11;;;;;;;8.07;3.92;;;;;;;14.53;64.52;101209.44;2105509;28;20044;-71
2022/05/14 02:32:33;;;;;;;7.68;3.83;;;;;;;14.57;64.44;101213.03;2111182;28;20474;-71
2022/05/14 02:33:56;;;;;;;7.25;3.88;;;;;;;14.54;64.54;101208.56;2111345;28;20411;-72
2022/05/14 02:35:18;;;;;;;7.72;3.40;;;;;;;14.54;64.79;101207.66;2102325;28;20122;-71
2022/05/14 02:36:41;;;;;;;6.38;3.35;;;;;;;14.53;64.86;101214.75;2108247;28;20143;-72
2022/05/14 02:38:03;;;;;;;9.93;4.30;;;;;;;14.54;65.07;101215.66;2100727;28;20101;-71
2022/05/14 02:39:25;;;;;;;;;;;;;;;14.52;65.24;101215.63;2107904;28;20480;-72
2022/05/14 02:40:48;;;;;;;8.98;4.10;;;;;;;14.51;65.58;101216.50;2102631;28;20357;-71
2022/05/14 02:42:09;;;;;;;7.88;4.38;;;;;;;14.51;65.69;101216.50;2108623;28;20066;-71
2022/05/14 02:43:33;;;;;;;5.70;2.83;;;;;;;14.47;65.81;101217.38;2109870;28;20047;-72
2022/05/14 02:44:55;;;;;;;6.28;3.78;;;;;;;14.40;66.02;101220.84;2102912;28;20048;-71
2022/05/14 02:46:17;;;;;;;8.50;3.40;;;;;;;14.32;66.39;101217.22;2103002;28;20135;-72
2022/05/14 02:47:40;;;;;;;9.15;3.92;;;;;;;14.30;66.62;101221.66;2098011;28;20039;-71
2022/05/14 02:49:03;;;;;;;6.70;2.90;;;;;;;14.32;66.57;101219.88;2106481;28;20074;-72
2022/05/14 02:50:24;;;;;;;9.07;3.80;;;;;;;14.37;66.75;101220.81;2105122;28;20595;-72
2022/05/14 02:51:48;;;;;;;6.50;3.65;;;;;;;14.39;66.63;101219.06;2094418;28;20064;-72
2022/05/14 02:53:11;;;;;;;8.60;3.75;;;;;;;14.41;66.56;101222.63;2097857;28;20040;-71
2022/05/14 02:54:32;;;;;;;10.52;3.33;;;;;;;14.43;66.53;101230.63;2103016;28;20330;-71
2022/05/14 02:55:55;;;;;;;8.82;3.35;;;;;;;14.43;66.57;101227.97;2098057;28;20072;-71
2022/05/14 02:57:17;;;;;;;5.90;3.35;;;;;;;14.40;66.44;101219.97;2102318;28;20112;-71
2022/05/14 03:00:22;;;;;;;8.70;4.00;;;;;;;14.39;66.42;101220.84;2105117;28;20454;-72
2022/05/14 03:01:48;;;;;;;9.45;4.00;;;;;;;14.36;66.54;101221.69;2101809;28;20088;-71
2022/05/14 03:03:14;;;;;;;6.75;3.55;;;;;;;14.34;66.54;101226.97;2097095;28;20114;-71
2022/05/14 03:04:38;;;;;;;9.10;3.50;;;;;;;14.35;66.54;101227.88;2099961;28;20485;-71
2022/05/14 03:06:02;;;;;;;7.35;3.67;;;;;;;14.31;66.72;101232.25;2094908;28;20041;-72
2022/05/14 03:07:24;;;;;;;5.63;3.10;;;;;;;14.26;66.88;101241.06;2105781;28;20070;-71
2022/05/14 03:08:47;;;;;;;8.80;3.85;;;;;;;14.25;67.05;101244.59;2101781;28;20503;-72
2022/05/14 03:10:10;;;;;;;10.95;3.85;;;;;;;14.29;67.12;101243.75;2106598;28;20043;-72
2022/05/14 03:11:32;;;;;;;7.05;3.45;;;;;;;14.32;67.06;101249.09;2104434;28;20036;-72
2022/05/14 03:12:55;;;;;;;6.85;4.07;;;;;;;14.34;67.14;101239.38;2111305;28;20104;-72
2022/05/14 03:14:18;;;;;;;7.90;4.07;;;;;;;14.36;66.98;101241.19;2100536;28;20115;-72
2022/05/14 03:15:40;;;;;;;6.88;3.80;;;;;;;14.37;67.15;101244.72;2103737;28;20040;-73
2022/05/14 03:17:04;;;;;;;7.60;3.80;;;;;;;14.39;67.12;101245.63;2102901;28;20056;-71
2022/05/14 03:18:26;;;;;;;8.02;3.50;;;;;;;14.43;67.02;101244.81;2102699;28;20506;-72
2022/05/14 03:19:49;;;;;;;8.25;3.95;;;;;;;14.43;66.95;101251.88;2098448;28;20138;-71
2022/05/14 03:21:11;;;;;;;6.43;3.83;;;;;;;14.46;66.81;101246.56;2104619;28;20060;-71
2022/05/14 03:22:34;;;;;;;8.05;3.97;;;;;;;14.47;66.55;101248.34;2101114;28;20052;-72
2022/05/14 03:23:57;;;;;;;8.20;4.10;;;;;;;14.50;66.55;101248.41;2097747;28;20523;-72
2022/05/14 03:25:19;;;;;;;8.80;4.25;;;;;;;14.51;66.49;101245.72;2095735;28;20500;-71
2022/05/14 03:26:42;;;;;;;8.68;3.75;;;;;;;14.52;66.38;101247.50;2093267;28;20146;-71
2022/05/14 03:28:05;;;;;;;8.95;3.70;;;;;;;14.52;66.43;101251.94;2111673;28;20052;-72
2022/05/14 03:29:28;;;;;;;7.93;3.97;;;;;;;14.56;66.35;101248.44;2105811;28;20048;-72
2022/05/14 03:30:51;;;;;;;9.60;3.72;;;;;;;14.60;66.56;101252.88;2106685;28;20078;-72
2022/05/14 03:32:13;;;;;;;7.20;4.28;;;;;;;14.68;66.53;101259.16;2109106;28;20055;-71
2022/05/14 03:33:36;;;;;;;8.25;3.90;;;;;;;14.79;66.52;101260.09;2112417;28;20159;-72
2022/05/14 03:35:00;;;;;;;9.20;3.65;;;;;;;14.92;66.58;101258.41;2112655;28;20078;-71
2022/05/14 03:36:22;;;;;;;8.23;3.72;;;;;;;15.03;66.41;101251.41;2101294;28;20086;-71
2022/05/14 03:37:45;;;;;;;12.15;3.90;;;;;;;15.18;66.37;101256.75;2107009;28;20082;-71
2022/05/14 03:39:07;;;;;;;6.60;3.70;;;;;;;15.32;66.32;101259.50;2110472;28;20048;-72
2022/05/14 03:40:29;;;;;;;11.63;4.00;;;;;;;15.47;66.30;101265.78;2104198;28;20046;-71
2022/05/14 03:41:51;;;;;;;9.90;3.95;;;;;;;15.62;66.24;101269.41;2095636;28;20095;-71
2022/05/14 03:43:14;;;;;;;6.93;3.42;;;;;;;15.74;66.11;101266.78;2101920;28;20039;-71
2022/05/14 03:44:38;;;;;;;6.90;3.42;;;;;;;15.85;66.03;101265.91;2101464;28;20044;-72
2022/05/14 03:45:59;;;;;;;6.00;3.55;;;;;;;15.95;66.11;101265.03;2099294;28;20044;-71
2022/05/14 03:47:22;;;;;;;6.53;3.30;;;;;;;16.07;65.97;101268.63;2108494;28;20047;-71
2022/05/14 03:48:45;;;;;;;8.20;3.88;;;;;;;16.20;65.98;101273.06;2102670;28;20472;-72
2022/05/14 03:50:07;;;;;;;7.63;3.13;;;;;;;16.33;65.82;101277.50;2108168;28;20473;-72
2022/05/14 03:51:30;;;;;;;11.10;3.53;;;;;;;16.47;65.88;101275.75;2103172;28;20171;-71
2022/05/14 03:52:53;;;;;;;5.90;3.45;;;;;;;16.63;65.86;101272.19;2106712;28;20067;-71
2022/05/14 03:54:15;;;;;;;8.13;3.72;;;;;;;16.82;65.70;101274.84;2105330;28;20168;-71
2022/05/14 03:55:37;;;;;;;13.95;3.67;;;;;;;16.96;65.50;101281.91;2101463;28;20051;-71
2022/05/14 03:56:59;;;;;;;14.10;8.55;;;;;;;17.12;65.31;101282.78;2099986;28;20071;-72
2022/05/14 03:58:22;;;;;;;11.55;6.60;;;;;;;17.20;65.17;101285.44;2101388;28;20051;-71
2022/05/14 03:59:46;;;;;;;12.95;7.40;;;;;;;17.18;65.10;101282.75;2108765;28;20052;-72
2022/05/14 04:01:09;;;;;;;9.13;4.65;;;;;;;17.19;65.39;101286.31;2102701;28;20036;-71
2022/05/14 04:02:31;;;;;;;11.25;4.18;;;;;;;17.26;65.44;101283.63;2099546;28;20583;-71
2022/05/14 04:03:54;;;;;;;8.23;4.18;;;;;;;17.35;65.17;101288.03;2109865;28;20055;-72
2022/05/14 04:05:17;;;;;;;6.07;2.95;;;;;;;17.44;65.04;101286.22;2103105;28;20069;-71
2022/05/14 04:06:40;;;;;;;6.80;2.72;;;;;;;17.55;64.69;101291.50;2098057;28;20078;-70
2022/05/14 04:08:01;;;;;;;9.68;3.28;;;;;;;17.64;64.38;101286.16;2111270;27;20099;-72
2022/05/14 04:09:24;;;;;;;6.93;2.85;;;;;;;17.75;64.12;101288.78;2098172;28;20049;-71
2022/05/14 04:10:46;;;;;;;6.22;2.80;;;;;;;17.87;63.73;101296.72;2102493;28;20036;-72
2022/05/14 04:12:09;;;;;;;6.07;3.60;;;;;;;17.97;63.33;101284.22;2103084;28;20500;-71
2022/05/14 04:13:31;;;;;;;8.55;4.03;;;;;;;18.09;63.08;101292.13;2104211;28;20131;-72
2022/05/14 04:14:55;;;;;;;8.00;4.57;;;;;;;18.21;62.77;101286.69;2108471;28;20112;-71
2022/05/14 04:16:18;;;;;;;9.43;4.22;;;;;;;18.34;62.49;101288.38;2099220;28;20396;-72
2022/05/14 04:17:41;;;;;;;5.35;3.60;;;;;;;18.49;62.08;101290.06;2105106;28;20044;-71
2022/05/14 04:19:05;;;;;;;7.18;2.67;;;;;;;18.65;61.65;101286.38;2103827;28;20044;-72
2022/05/14 04:20:26;;;;;;;5.20;2.72;;;;;;;18.78;60.85;101285.34;2095745;28;20066;-72
2022/05/14 04:21:49;;;;;;;5.32;2.70;;;;;;;18.94;60.27;101289.66;2095526;28;20052;-72
2022/05/14 04:23:10;;;;;;;6.60;2.60;;;;;;;19.09;59.59;101293.97;2109447;27;20077;-71
2022/05/14 04:24:33;;;;;;;7.05;2.70;;;;;;;19.23;59.41;101299.16;2103745;28;20132;-72
2022/05/14 04:25:57;;;;;;;6.85;2.83;;;;;;;19.39;58.81;101301.63;2099407;28;20517;-72
2022/05/14 04:27:20;;;;;;;7.20;3.00;;;;;;;19.55;58.67;101301.50;2098758;28;20560;-71
2022/05/14 04:28:42;;;;;;;5.43;2.80;;;;;;;19.69;58.29;101300.38;2098975;28;20072;-72
2022/05/14 04:30:08;;;;;;;8.27;3.13;;;;;;;19.83;57.95;101302.88;2110157;28;20040;-72
2022/05/14 04:31:31;;;;;;;6.70;2.95;;;;;;;19.92;57.74;101302.78;2104083;28;20051;-72
2022/05/14 04:32:55;;;;;;;7.28;3.10;;;;;;;20.05;57.49;101298.13;2101216;28;20466;-73
2022/05/14 04:34:18;;;;;;;8.55;3.45;;;;;;;20.20;57.39;101303.25;2103663;28;20043;-72
2022/05/14 04:35:39;;;;;;;7.63;3.42;;;;;;;20.37;57.18;101306.59;2108004;28;20055;-72
2022/05/14 04:37:02;;;;;;;6.68;3.20;;;;;;;20.56;56.62;101297.31;2103109;28;20059;-72
2022/05/14 04:38:25;;;;;;;8.02;3.25;;;;;;;20.74;55.87;101304.19;2099637;28;20727;-71
2022/05/14 04:39:49;;;;;;;7.38;2.72;;;;;;;20.89;54.28;101303.00;2100877;28;20152;-72
2022/05/14 04:41:12;;;;;;;7.05;2.75;;;;;;;21.01;52.64;101300.09;2101107;28;20086;-72
2022/05/14 04:42:33;;;;;;;4.82;2.47;;;;;;;21.08;51.94;101296.38;2095908;28;20036;-72
2022/05/14 04:43:56;;;;;;;6.28;2.88;;;;;;;21.17;51.25;101290.00;2097639;28;20066;-71
2022/05/14 04:45:19;;;;;;;7.13;2.33;;;;;;;21.25;50.72;101296.09;2098644;28;20039;-72
2022/05/14 04:46:42;;;;;;;4.57;2.92;;;;;;;21.36;50.77;101302.16;2096933;28;20141;-72
2022/05/14 04:48:05;;;;;;;6.88;2.70;;;;;;;21.54;50.73;101300.88;2116034;27;20058;-72
2022/05/14 04:49:29;;;;;;;6.10;2.67;;;;;;;21.69;50.33;101301.44;2098541;28;20512;-71
2022/05/14 04:50:52;;;;;;;5.93;2.90;;;;;;;21.89;50.21;101290.25;2106068;27;20499;-71
2022/05/14 04:52:16;;;;;;;5.72;2.67;;;;;;;22.14;50.08;101294.19;2101341;28;20040;-72
2022/05/14 04:53:39;;;;;;;5.00;2.60;;;;;;;22.43;50.04;101292.59;2105090;28;20071;-72
2022/05/14 04:55:00;;;;;;;6.50;2.80;;;;;;;22.68;49.78;101291.06;2097700;28;20052;-73
2022/05/14 04:56:23;;;;;;;;;;;;;;;22.87;49.49;101289.69;2108702;28;20032;-72
2022/05/14 04:57:44;;;;;;;6.13;2.88;;;;;;;23.09;49.46;101291.81;2104126;28;20326;-72
2022/05/14 04:59:08;;;;;;;4.85;3.00;;;;;;;23.33;49.17;101294.69;2102926;28;20381;-71
2022/05/14 05:00:32;;;;;;;6.55;2.72;;;;;;;23.59;48.71;101293.97;2099860;28;20051;-73
2022/05/14 05:03:36;;;;;;;6.40;3.00;;;;;;;24.03;47.95;101289.00;2109961;28;20098;-73
2022/05/14 05:04:58;;;;;;;6.88;2.97;;;;;;;24.18;47.35;101283.13;2106070;28;20774;-73
2022/05/14 05:06:23;;;;;;;7.57;3.20;;;;;;;24.35;47.05;101288.03;2109056;28;20136;-72
2022/05/14 05:07:47;;;;;;;9.68;3.05;;;;;;;24.56;46.48;101285.47;2103067;28;20052;-73
2022/05/14 05:09:10;;;;;;;6.45;2.90;;;;;;;24.74;46.27;101284.00;2104312;28;20042;-72
2022/05/14 05:10:33;;;;;;;5.45;2.70;;;;;;;24.93;45.72;101295.06;2101220;28;20047;-72
2022/05/14 05:11:55;;;;;;;8.70;3.05;;;;;;;25.06;45.45;101299.09;2108832;28;20202;-74
2022/05/14 05:13:20;;;;;;;6.53;3.00;;;;;;;25.18;45.66;101290.56;2109745;28;20048;-73
2022/05/14 05:14:43;;;;;;;5.82;3.50;;;;;;;25.35;45.76;101289.91;2112246;28;20088;-72
2022/05/14 05:16:07;;;;;;;5.88;3.70;;;;;;;25.56;45.67;101290.94;2111772;28;20376;-73
2022/05/14 05:17:29;;;;;;;7.70;3.22;;;;;;;25.73;45.71;101291.22;2111572;28;20055;-72
2022/05/14 05:18:51;;;;;;;6.22;3.75;;;;;;;25.94;45.74;101286.78;2111019;28;20055;-72
2022/05/14 05:20:13;;;;;;;6.65;3.78;;;;;;;26.15;45.63;101296.75;2107204;28;20203;-71
2022/05/14 05:21:36;;;;;;;6.82;3.25;;;;;;;26.30;45.54;101290.75;2102065;28;20134;-73
2022/05/14 05:22:57;;;;;;;7.82;3.08;;;;;;;26.46;45.07;101293.69;2103867;28;20052;-72
2022/05/14 05:24:19;;;;;;;6.35;3.15;;;;;;;26.55;44.35;101280.66;2109122;28;20051;-72
2022/05/14 05:25:42;;;;;;;7.60;3.75;;;;;;;26.63;43.81;101287.59;2111442;28;20101;-72
2022/05/14 05:27:06;;;;;;;10.63;4.03;;;;;;;26.66;43.24;101277.47;2104962;28;20451;-73
2022/05/14 05:28:29;;;;;;;7.05;3.65;;;;;;;26.67;43.09;101281.97;2115845;27;20485;-73
2022/05/14 05:29:50;;;;;;;5.22;2.85;;;;;;;26.76;43.26;101278.88;2105875;28;20538;-72
2022/05/14 05:31:14;;;;;;;6.78;3.20;;;;;;;26.91;43.19;101283.63;2111529;28;20043;-72
2022/05/14 05:32:37;;;;;;;7.68;3.28;;;;;;;27.12;43.18;101283.63;2104553;28;20499;-72
2022/05/14 05:34:00;;;;;;;10.30;3.50;;;;;;;27.22;42.76;101277.75;2111550;28;20050;-72
2022/05/14 05:35:21;;;;;;;6.35;3.40;;;;;;;27.31;42.72;101281.84;2097207;28;20048;-73
2022/05/14 05:36:44;;;;;;;7.65;3.58;;;;;;;27.28;42.30;101287.44;2103349;28;20048;-73
2022/05/14 05:38:06;;;;;;;7.07;3.42;;;;;;;27.24;42.13;101280.41;2103510;28;20075;-72
2022/05/14 05:39:29;;;;;;;5.32;3.10;;;;;;;27.25;41.79;101279.44;2106602;28;20415;-70
2022/05/14 05:40:53;;;;;;;5.93;3.05;;;;;;;27.44;41.28;101277.63;2101154;28;20052;-70
2022/05/14 05:42:14;;;;;;;5.10;2.88;;;;;;;27.60;40.92;101283.28;2105713;28;20836;-69
2022/05/14 05:43:37;;;;;;;7.82;2.72;;;;;;;27.69;40.12;101282.84;2103451;28;20058;-72
2022/05/14 05:44:59;;;;;;;6.57;3.22;;;;;;;27.83;40.16;101276.78;2096213;28;20043;-71
2022/05/14 05:46:23;;;;;;;;;;;;;;;27.88;39.24;101282.84;2108162;28;20044;-71
2022/05/14 05:47:46;;;;;;;5.70;2.40;;;;;;;28.05;39.51;101283.78;2102713;28;20027;-71
2022/05/14 05:49:07;;;;;;;5.65;2.50;;;;;;;28.14;39.07;101285.22;2114382;27;20198;-71
2022/05/14 05:50:30;;;;;;;6.57;2.70;;;;;;;28.21;38.97;101283.09;2097150;28;20051;-71
2022/05/14 05:51:53;;;;;;;4.90;2.67;;;;;;;28.40;38.71;101287.53;2108992;28;20043;-71
2022/05/14 05:53:16;;;;;;;6.68;2.97;;;;;;;28.58;38.48;101274.84;2110946;28;20044;-71
2022/05/14 05:58:01;;;;;;;6.65;2.42;;;;;;;29.09;38.37;101278.56;2103382;28;20143;-71
2022/05/14 05:59:25;;;;;;;6.75;2.90;;;;;;;29.32;37.72;101280.94;2100937;27;20074;-71
2022/05/14 06:00:47;;;;;;;8.07;2.90;;;;;;;29.50;37.42;101284.53;2108754;28;20048;-71
2022/05/14 06:02:11;;;;;;;5.80;2.75;;;;;;;29.64;37.27;101284.66;2111270;27;20054;-71
2022/05/14 06:03:34;;;;;;;6.55;2.90;;;;;;;29.60;37.18;101283.94;2102447;28;20460;-71
2022/05/14 06:04:55;;;;;;;5.60;2.90;;;;;;;29.67;37.19;101285.34;2094809;28;20524;-71
2022/05/14 06:06:17;;;;;;;5.43;2.70;;;;;;;29.75;37.00;101284.94;2099670;28;20104;-71
2022/05/14 06:07:40;;;;;;;5.97;2.78;;;;;;;29.75;36.81;101279.47;2106656;27;20047;-71
2022/05/14 06:09:01;;;;;;;8.10;2.90;;;;;;;29.74;36.81;101291.31;2108234;27;20222;-72
2022/05/14 06:10:24;;;;;;;3.70;2.38;;;;;;;29.78;36.61;101282.03;2096237;28;20060;-71
2022/05/14 06:11:47;;;;;;;8.13;2.63;;;;;;;29.84;36.48;101289.00;2091995;28;20048;-71
2022/05/14 06:13:10;;;;;;;5.53;2.70;;;;;;;29.88;36.70;101287.84;2103426;28;20048;-71
2022/05/14 06:14:32;;;;;;;6.32;2.78;;;;;;;29.91;36.68;101285.84;2108961;28;20055;-72
2022/05/14 06:15:56;;;;;;;4.90;2.60;;;;;;;29.93;36.75;101281.19;2104283;28;20101;-71
2022/05/14 06:17:18;;;;;;;4.68;2.78;;;;;;;29.90;36.61;101278.63;2106431;27;20074;-71
2022/05/14 06:18:42;;;;;;;6.82;2.95;;;;;;;29.83;36.57;101277.22;2103265;28;20043;-71
2022/05/14 06:20:05;;;;;;;5.78;2.67;;;;;;;29.79;36.46;101281.09;2109248;28;20052;-71
2022/05/14 06:21:28;;;;;;;6.93;3.53;;;;;;;29.75;36.60;101279.47;2106790;28;20464;-71
2022/05/14 06:22:51;;;;;;;3.38;2.15;;;;;;;29.65;36.80;101278.25;2108656;28;20044;-71
2022/05/14 06:24:15;;;;;;;7.78;2.75;;;;;;;29.49;37.08;101274.59;2110796;28;20047;-73
2022/05/14 06:25:38;;;;;;;5.95;2.60;;;;;;;29.49;37.28;101274.59;2108703;28;20136;-71
2022/05/14 06:26:59;;;;;;;6.70;2.60;;;;;;;29.43;37.38;101267.66;2108100;28;21854;-71
2022/05/14 06:28:21;;;;;;;5.70;3.15;;;;;;;29.40;37.37;101269.69;2108673;28;20093;-71
2022/05/14 06:29:44;;;;;;;6.55;2.72;;;;;;;29.37;37.51;101272.56;2101498;28;20052;-71
2022/05/14 06:31:06;;;;;;;6.00;2.70;;;;;;;29.28;37.78;101268.44;2103430;27;20064;-71
2022/05/14 06:32:30;;;;;;;7.18;3.47;;;;;;;29.10;37.91;101275.75;2107896;27;20176;-71
2022/05/14 06:33:51;;;;;;;6.80;3.00;;;;;;;28.92;38.24;101280.34;2110113;28;20511;-72
2022/05/14 06:35:14;;;;;;;7.53;3.53;;;;;;;28.79;38.34;101272.91;2102368;28;20048;-71
2022/05/14 06:36:37;;;;;;;7.25;3.22;;;;;;;28.73;38.43;101263.19;2096314;28;20048;-71
2022/05/14 06:37:59;;;;;;;6.10;2.90;;;;;;;28.67;38.60;101270.78;2108554;28;20453;-71
2022/05/14 06:39:22;;;;;;;4.95;2.88;;;;;;;28.66;38.25;101269.91;2110643;28;21246;-71